Portada
METAR-TAF:

METAR-TAF

Aeropuertos :

Niamey, Níger

Aeropuerto Internacional Diori Hamani

latitud: 13-29N, longitud: 002-10E, altitud: 223 m

Observación

El informe se hizo hace 47 minutos, a las 09:00 UTC
Viento 6 kt del oeste, variando entre suroeste y oeste-noroeste
Temperatura 36°C
Humedad 19%
Presión 1012 hPa
Visibilidad: 8000 m

METAR: DRRN 190900Z 27006KT 220V300 8000 NSC 36/09 Q1012 NOSIG

Hora: 10:47 (09:47 UTC)

Pronóstico

El informe se hizo hace 4 horas y 47 minutos, a las 05:00 UTC
Pronóstico válido del 19 a las 06 UTC al 20 a las 12 UTC
Viento 8 kt del noroeste
Visibilidad: 8000 m
Probabilidad 30%
del 19 a las 06 UTC al 19 a las 09 UTC
Visibilidad: 4500 m
Polvo extendido
Probabilidad 30%
del 19 a las 17 UTC al 19 a las 20 UTC
Visibilidad: 4500 m
Polvo extendido

TAF: DRRN 190500Z 1906/2012 32008KT 8000 NSC PROB30 1906/1909 4500 DU PROB30 1917/1920 4500 DU

Observaciones y pronósticos meteorológicos de más de 4000 aeropuertos (mensajes METAR y TAF).

Los puntos amarillos y rojos representan las estaciones disponibles.

Ponga el ratón en el punto deseado para ver el nombre de la estación.

Haga clic para ver las observaciones y los pronósticos meteorológicos.

Para cambiar el mapa : haga clic en los botones verdes con una cruz de color negro para hacer un zoom, en el botón verde con un guión para alejar o en las flechas verdes para mapas adyacentes.


METAR-TAF: